Time;durP1;ratioP1;P1;durP2;ratioP2;P2;SDS_P1;SDS_P2;PMS_P1;PMS_P2;Temp;Humidity;BMP_temperature;BMP_pressure;BME280_temperature;BME280_humidity;BME280_pressure;Samples;Min_cycle;Max_cycle;Signal;HPM_P1;HPM_P2
2022/10/31 00:00:59;;;;;;;18.88;14.05;;;25.40;99.90;;;;;;4936113;29;20043;-66
2022/10/31 00:03:26;;;;;;;39.42;27.45;;;25.20;99.90;;;;;;4936437;29;20032;-66
2022/10/31 00:05:53;;;;;;;26.33;16.05;;;25.20;99.90;;;;;;4936260;29;20067;-66
2022/10/31 00:08:19;;;;;;;22.60;16.25;;;25.20;99.90;;;;;;4936073;29;20020;-67
2022/10/31 00:10:46;;;;;;;20.80;14.73;;;25.20;99.90;;;;;;4936273;29;20068;-66
2022/10/31 00:13:14;;;;;;;34.88;19.92;;;25.20;99.90;;;;;;4936564;29;20032;-66
2022/10/31 00:15:41;;;;;;;35.55;19.90;;;25.20;99.90;;;;;;4950660;29;20031;-65
2022/10/31 00:18:09;;;;;;;36.65;18.13;;;25.20;99.90;;;;;;4993833;28;20046;-67
2022/10/31 00:20:36;;;;;;;26.88;17.85;;;25.20;99.90;;;;;;4983614;28;20527;-66
2022/10/31 00:23:04;;;;;;;35.20;21.50;;;25.20;99.90;;;;;;4985537;28;20113;-66
2022/10/31 00:25:35;;;;;;;46.85;29.02;;;25.30;99.90;;;;;;4983939;28;20019;-66
2022/10/31 00:28:03;;;;;;;47.72;28.98;;;25.20;99.90;;;;;;4984294;28;20077;-67
2022/10/31 00:30:29;;;;;;;43.95;31.83;;;25.20;99.90;;;;;;4986450;28;20033;-66
2022/10/31 00:32:56;;;;;;;41.55;29.90;;;25.20;99.90;;;;;;4983490;28;20056;-67
2022/10/31 00:35:22;;;;;;;33.35;23.48;;;25.30;99.90;;;;;;4985226;28;20037;-66
2022/10/31 00:37:49;;;;;;;63.45;37.80;;;25.30;99.90;;;;;;4983712;28;20369;-64
2022/10/31 00:40:15;;;;;;;37.08;24.90;;;25.40;99.90;;;;;;4984021;28;20089;-65
2022/10/31 00:42:42;;;;;;;40.25;28.08;;;25.30;99.90;;;;;;4984731;28;20085;-66
2022/10/31 00:45:10;;;;;;;40.65;24.90;;;25.30;99.90;;;;;;4985550;28;20032;-66
2022/10/31 00:47:36;;;;;;;28.98;21.13;;;25.40;99.90;;;;;;4984056;28;20018;-65
2022/10/31 00:50:05;;;;;;;36.80;23.63;;;25.40;99.90;;;;;;5004029;28;20378;-66
2022/10/31 00:52:31;;;;;;;102.10;64.43;;;25.50;99.90;;;;;;5006416;28;20026;-65
2022/10/31 00:54:58;;;;;;;85.40;56.60;;;25.60;99.90;;;;;;5005563;28;20022;-67
2022/10/31 00:57:24;;;;;;;46.83;32.22;;;25.70;99.90;;;;;;5010937;28;20479;-65
2022/10/31 00:59:51;;;;;;;64.50;40.47;;;25.70;99.90;;;;;;5008999;28;20019;-65
2022/10/31 01:02:17;;;;;;;94.78;67.72;;;25.70;99.90;;;;;;5004735;28;20026;-65
2022/10/31 01:04:44;;;;;;;67.68;51.95;;;25.60;99.90;;;;;;5005611;28;20062;-65
2022/10/31 01:07:12;;;;;;;52.95;31.60;;;25.50;99.90;;;;;;5003768;28;20029;-65
2022/10/31 01:09:38;;;;;;;36.10;26.67;;;25.40;99.90;;;;;;5004246;28;20014;-65
2022/10/31 01:12:05;;;;;;;43.55;28.20;;;25.40;99.90;;;;;;5005650;28;20026;-67
2022/10/31 01:14:31;;;;;;;48.97;39.13;;;25.40;99.90;;;;;;5003642;28;20058;-66
2022/10/31 01:16:58;;;;;;;47.10;37.72;;;25.40;99.90;;;;;;5004173;28;20434;-62
2022/10/31 01:19:24;;;;;;;47.80;36.67;;;25.40;99.90;;;;;;5005395;28;20083;-65
2022/10/31 01:21:55;;;;;;;102.90;49.72;;;25.40;99.90;;;;;;5003581;28;20471;-67
2022/10/31 01:24:21;;;;;;;47.10;34.92;;;25.50;99.90;;;;;;5003726;28;20036;-67
2022/10/31 01:26:48;;;;;;;38.78;31.90;;;25.60;99.90;;;;;;5005348;28;20060;-66
2022/10/31 01:29:14;;;;;;;40.13;30.55;;;25.70;99.90;;;;;;5003857;28;20049;-64
2022/10/31 01:31:41;;;;;;;38.63;30.35;;;25.60;99.90;;;;;;5003657;28;20031;-66
2022/10/31 01:34:12;;;;;;;35.50;29.15;;;25.60;99.90;;;;;;5006828;28;20030;-66
2022/10/31 01:36:39;;;;;;;34.15;27.17;;;25.50;99.90;;;;;;5006145;28;20367;-68
2022/10/31 01:39:08;;;;;;;37.28;27.27;;;25.50;99.90;;;;;;5005557;28;20129;-67
2022/10/31 01:41:38;;;;;;;44.00;30.85;;;25.50;99.90;;;;;;5003934;28;20018;-66
2022/10/31 01:44:24;;;;;;;36.35;30.50;;;25.50;99.90;;;;;;5003317;28;20368;-65
2022/10/31 01:46:56;;;;;;;36.22;30.08;;;25.50;99.90;;;;;;5003166;28;20015;-66
2022/10/31 01:49:30;;;;;;;;;;;25.70;99.90;;;;;;5003338;28;20049;-65
2022/10/31 01:52:03;;;;;;;39.10;34.85;;;25.70;99.90;;;;;;5003854;28;19913;-67
2022/10/31 01:54:34;;;;;;;77.88;57.15;;;25.80;99.90;;;;;;5002919;28;20026;-65
2022/10/31 01:57:02;;;;;;;47.65;42.50;;;25.80;99.90;;;;;;5003429;28;20032;-66
2022/10/31 01:59:34;;;;;;;50.92;40.40;;;25.80;99.90;;;;;;5004727;28;20101;-66
2022/10/31 02:02:01;;;;;;;273.05;199.35;;;25.80;99.90;;;;;;5004469;28;20037;-67
2022/10/31 02:04:29;;;;;;;260.95;170.60;;;25.80;99.90;;;;;;5002418;28;20475;-68
2022/10/31 02:07:03;;;;;;;307.05;235.82;;;25.80;99.90;;;;;;5003941;28;20101;-64
2022/10/31 02:09:32;;;;;;;91.13;71.13;;;25.90;99.90;;;;;;5004683;28;20368;-67
2022/10/31 02:11:59;;;;;;;51.10;44.00;;;25.80;99.90;;;;;;5003772;28;20042;-67
2022/10/31 02:14:29;;;;;;;274.48;231.05;;;25.80;99.90;;;;;;5003644;28;20394;-68
2022/10/31 02:16:58;;;;;;;62.92;49.40;;;25.70;99.90;;;;;;5004154;28;20030;-65
2022/10/31 02:19:40;;;;;;;65.40;53.50;;;25.60;99.90;;;;;;5007838;28;20439;-65
2022/10/31 02:22:29;;;;;;;69.33;57.57;;;25.80;99.90;;;;;;5014484;28;20025;-66
2022/10/31 02:24:55;;;;;;;59.17;47.20;;;25.80;99.90;;;;;;5013908;28;20276;-65
2022/10/31 02:27:38;;;;;;;48.85;40.17;;;25.80;99.90;;;;;;5014226;28;20471;-63
2022/10/31 02:30:11;;;;;;;40.40;35.35;;;25.80;99.90;;;;;;5013715;28;20391;-66
2022/10/31 02:32:52;;;;;;;42.45;37.13;;;25.80;99.90;;;;;;5013520;28;20018;-65
2022/10/31 02:35:26;;;;;;;84.28;74.75;;;25.80;99.90;;;;;;5013803;28;20033;-66
2022/10/31 02:38:01;;;;;;;99.32;81.15;;;25.80;99.90;;;;;;5013640;28;20441;-66
2022/10/31 02:40:36;;;;;;;333.25;282.45;;;25.80;99.90;;;;;;5013552;28;20038;-66
2022/10/31 02:43:10;;;;;;;68.43;59.38;;;25.80;99.90;;;;;;5017458;28;20033;-65
2022/10/31 02:45:48;;;;;;;56.40;47.60;;;25.70;99.90;;;;;;5017770;28;20080;-66
2022/10/31 02:48:29;;;;;;;56.63;45.60;;;25.80;99.90;;;;;;5017160;28;20046;-65
2022/10/31 02:51:00;;;;;;;51.05;42.53;;;25.80;99.90;;;;;;5018173;28;20029;-64
2022/10/31 02:53:31;;;;;;;54.35;46.85;;;25.90;99.90;;;;;;5011815;28;20060;-65
2022/10/31 02:56:05;;;;;;;47.78;39.22;;;25.90;99.90;;;;;;4999010;28;20034;-65
2022/10/31 02:58:36;;;;;;;50.13;35.88;;;25.90;99.90;;;;;;4998490;28;20468;-65
2022/10/31 03:01:05;;;;;;;53.08;43.47;;;26.00;99.90;;;;;;4998104;28;20105;-67
2022/10/31 03:03:52;;;;;;;52.17;41.05;;;26.00;99.90;;;;;;4998620;28;20037;-65
2022/10/31 03:06:28;;;;;;;49.47;40.95;;;26.00;99.90;;;;;;4998342;28;20080;-66
2022/10/31 03:09:03;;;;;;;43.55;38.65;;;26.00;99.90;;;;;;4998151;28;20026;-65
2022/10/31 03:11:37;;;;;;;41.15;34.47;;;26.00;99.90;;;;;;4997873;28;20385;-65
2022/10/31 03:14:12;;;;;;;50.13;41.85;;;26.10;99.90;;;;;;4998009;28;20023;-66
2022/10/31 03:16:41;;;;;;;174.20;156.27;;;26.10;99.90;;;;;;4997949;28;20030;-68
2022/10/31 03:19:14;;;;;;;47.85;42.95;;;26.10;99.90;;;;;;4997538;28;20033;-67
2022/10/31 03:21:44;;;;;;;38.55;32.20;;;26.10;99.90;;;;;;4997664;28;20026;-67
2022/10/31 03:24:13;;;;;;;35.63;31.75;;;26.10;99.90;;;;;;4997542;28;20061;-64
2022/10/31 03:26:46;;;;;;;41.95;34.92;;;26.10;99.90;;;;;;4997457;28;20030;-64
2022/10/31 03:29:16;;;;;;;47.53;36.90;;;26.10;99.90;;;;;;4997154;28;20033;-64
2022/10/31 03:31:59;;;;;;;39.78;34.22;;;26.10;99.90;;;;;;4997462;28;20026;-64
2022/10/31 03:34:28;;;;;;;45.63;37.88;;;26.10;99.90;;;;;;4996752;28;20030;-65
2022/10/31 03:36:58;;;;;;;42.42;35.33;;;26.10;99.90;;;;;;4996716;28;20064;-64
2022/10/31 03:39:25;;;;;;;47.72;39.42;;;26.10;99.90;;;;;;4996862;28;20030;-64
2022/10/31 03:41:58;;;;;;;47.47;40.60;;;26.10;99.90;;;;;;4996670;28;20077;-65
2022/10/31 03:44:28;;;;;;;48.65;41.75;;;26.10;99.90;;;;;;4996600;28;20084;-65
2022/10/31 03:46:55;;;;;;;79.47;61.00;;;26.10;99.90;;;;;;4996610;28;20030;-64
2022/10/31 03:49:22;;;;;;;55.85;44.95;;;26.10;99.90;;;;;;4996712;28;20046;-64
2022/10/31 03:51:55;;;;;;;50.60;43.85;;;26.20;99.90;;;;;;4996568;28;20022;-64
2022/10/31 03:54:35;;;;;;;57.65;44.35;;;26.30;99.90;;;;;;4995757;28;20062;-67
2022/10/31 03:57:14;;;;;;;57.03;42.65;;;26.30;99.90;;;;;;5005587;28;20034;-65
2022/10/31 03:59:47;;;;;;;51.60;40.90;;;26.40;99.90;;;;;;4996705;28;20356;-64
2022/10/31 04:02:22;;;;;;;53.53;43.20;;;26.40;99.90;;;;;;4996683;28;20033;-65
2022/10/31 04:04:50;;;;;;;62.67;45.22;;;26.40;99.90;;;;;;4996672;28;20026;-65
2022/10/31 04:07:20;;;;;;;56.45;43.75;;;26.50;99.90;;;;;;4996587;28;20476;-65
2022/10/31 04:09:48;;;;;;;64.97;49.20;;;26.50;99.90;;;;;;4996601;28;20069;-65
2022/10/31 04:12:16;;;;;;;85.70;65.15;;;26.60;99.90;;;;;;4996231;28;20574;-65
2022/10/31 04:14:46;;;;;;;74.32;56.00;;;26.70;99.90;;;;;;4996395;28;20035;-65
2022/10/31 04:17:16;;;;;;;68.60;52.70;;;26.70;99.90;;;;;;4996223;28;20041;-65
2022/10/31 04:19:43;;;;;;;47.28;35.30;;;26.80;99.90;;;;;;4998738;28;20038;-65
2022/10/31 04:22:10;;;;;;;40.83;33.60;;;26.80;99.90;;;;;;5003396;28;20369;-65
2022/10/31 04:24:39;;;;;;;30.52;23.85;;;26.80;99.90;;;;;;5010553;28;20037;-65
2022/10/31 04:27:06;;;;;;;35.15;27.15;;;26.90;99.90;;;;;;5008879;28;20054;-65
2022/10/31 04:29:32;;;;;;;30.25;23.95;;;26.90;99.90;;;;;;5004318;28;20030;-66
2022/10/31 04:31:59;;;;;;;26.80;23.90;;;27.00;99.90;;;;;;5005055;28;20427;-64
2022/10/31 04:34:25;;;;;;;43.22;27.85;;;27.00;99.90;;;;;;5007006;28;20033;-64
2022/10/31 04:36:52;;;;;;;27.45;21.17;;;26.90;99.90;;;;;;5015596;28;20630;-64
2022/10/31 04:39:18;;;;;;;33.92;22.90;;;27.00;99.90;;;;;;5015626;28;20026;-65
2022/10/31 04:41:45;;;;;;;26.05;23.23;;;26.90;99.90;;;;;;5015520;28;20034;-65
2022/10/31 04:44:11;;;;;;;27.08;19.77;;;27.00;99.90;;;;;;5015755;28;20054;-65
2022/10/31 04:46:38;;;;;;;28.33;20.17;;;27.10;99.90;;;;;;5015362;28;20022;-64
2022/10/31 04:49:04;;;;;;;28.08;20.67;;;27.20;99.90;;;;;;5015180;28;20415;-64
2022/10/31 04:51:31;;;;;;;27.65;21.55;;;27.20;99.90;;;;;;5014755;28;20030;-63
2022/10/31 04:53:57;;;;;;;26.15;17.65;;;27.30;99.90;;;;;;5014980;28;20430;-65
2022/10/31 04:56:24;;;;;;;22.48;16.58;;;27.40;99.90;;;;;;5014891;28;20076;-65
2022/10/31 04:58:50;;;;;;;37.80;17.92;;;27.50;99.90;;;;;;5014346;28;20072;-66
2022/10/31 05:01:17;;;;;;;19.10;16.13;;;27.50;99.90;;;;;;5014837;28;20018;-64
2022/10/31 05:03:43;;;;;;;30.40;17.35;;;27.50;99.90;;;;;;5014271;28;20018;-65
2022/10/31 05:06:10;;;;;;;28.88;16.23;;;27.50;99.90;;;;;;5014474;28;20026;-65
2022/10/31 05:08:36;;;;;;;19.65;15.35;;;27.50;99.90;;;;;;5014607;28;20018;-65
2022/10/31 05:11:04;;;;;;;22.48;15.43;;;27.50;99.90;;;;;;5014137;28;20022;-65
2022/10/31 05:13:31;;;;;;;23.92;15.60;;;27.60;99.90;;;;;;5014495;28;20548;-65
2022/10/31 05:15:59;;;;;;;18.33;14.65;;;27.60;99.90;;;;;;5014506;28;20030;-65
2022/10/31 05:18:26;;;;;;;17.23;13.82;;;27.70;99.90;;;;;;5014423;28;20475;-65
2022/10/31 05:20:52;;;;;;;19.92;13.25;;;27.70;99.90;;;;;;5014417;28;20065;-65
2022/10/31 05:23:19;;;;;;;21.40;14.80;;;27.80;99.90;;;;;;5014185;28;20037;-64
2022/10/31 05:25:46;;;;;;;22.45;14.70;;;27.80;99.90;;;;;;5014397;28;20049;-64
2022/10/31 05:28:12;;;;;;;15.90;13.48;;;27.80;99.90;;;;;;5005257;28;20026;-64
2022/10/31 05:30:39;;;;;;;18.55;15.60;;;27.90;99.90;;;;;;5002858;28;20044;-63
2022/10/31 05:33:05;;;;;;;23.00;15.68;;;27.90;99.90;;;;;;5002663;28;20471;-64
2022/10/31 05:35:33;;;;;;;23.73;16.92;;;27.90;99.90;;;;;;5007445;28;20416;-64
2022/10/31 05:38:00;;;;;;;19.88;15.38;;;27.90;99.90;;;;;;5006418;28;20037;-65
2022/10/31 05:40:27;;;;;;;14.40;11.30;;;27.90;99.90;;;;;;5001568;28;20049;-62
2022/10/31 05:42:55;;;;;;;14.30;11.23;;;27.80;99.90;;;;;;5001631;28;20036;-63
2022/10/31 05:45:23;;;;;;;11.35;9.60;;;27.70;99.90;;;;;;5001705;28;20025;-64
2022/10/31 05:48:00;;;;;;;12.07;10.13;;;27.70;99.90;;;;;;4999137;28;20026;-63
2022/10/31 05:50:29;;;;;;;14.82;9.93;;;27.80;99.90;;;;;;4998887;28;20026;-64
2022/10/31 05:52:59;;;;;;;14.02;9.48;;;27.80;99.90;;;;;;4998554;28;20032;-62
2022/10/31 05:55:26;;;;;;;13.75;8.50;;;27.80;99.90;;;;;;4995560;28;20109;-62
2022/10/31 05:57:54;;;;;;;11.27;8.40;;;27.80;99.90;;;;;;4996354;28;20030;-62
2022/10/31 06:00:21;;;;;;;14.63;9.95;;;27.80;99.90;;;;;;5006644;28;20054;-62
2022/10/31 06:02:48;;;;;;;18.85;10.40;;;27.80;99.90;;;;;;5005506;28;20022;-63
2022/10/31 06:05:16;;;;;;;15.23;9.93;;;27.80;99.90;;;;;;5000702;28;20034;-62
2022/10/31 06:07:42;;;;;;;16.02;9.95;;;27.80;99.90;;;;;;5001038;28;20025;-62
2022/10/31 06:10:10;;;;;;;10.73;9.60;;;27.90;99.90;;;;;;5001910;28;20025;-62
2022/10/31 06:12:37;;;;;;;13.25;9.82;;;27.80;99.90;;;;;;5002864;28;20101;-63
2022/10/31 06:15:08;;;;;;;16.48;10.45;;;28.00;99.90;;;;;;5003538;28;20030;-64
2022/10/31 06:17:35;;;;;;;16.10;13.88;;;28.00;99.90;;;;;;5002255;28;20018;-63
2022/10/31 06:20:03;;;;;;;15.25;13.65;;;28.10;99.90;;;;;;5002223;28;20030;-63
2022/10/31 06:22:30;;;;;;;21.30;14.07;;;28.10;99.90;;;;;;5002210;28;20113;-65
2022/10/31 06:24:56;;;;;;;17.88;14.35;;;28.10;99.90;;;;;;5002654;28;20022;-64
2022/10/31 06:27:24;;;;;;;15.40;13.27;;;28.10;99.90;;;;;;5005465;28;20081;-66
2022/10/31 06:29:50;;;;;;;21.17;14.48;;;28.20;99.90;;;;;;5003887;28;20025;-66
2022/10/31 06:32:17;;;;;;;20.92;15.25;;;28.20;99.90;;;;;;5002600;28;20097;-63
2022/10/31 06:34:44;;;;;;;16.67;14.73;;;28.20;99.90;;;;;;5003861;28;20506;-64
2022/10/31 06:37:12;;;;;;;18.40;12.80;;;28.10;99.90;;;;;;5001674;28;20034;-64
2022/10/31 06:39:38;;;;;;;19.38;14.52;;;28.20;99.90;;;;;;5002187;28;20030;-64
2022/10/31 06:42:05;;;;;;;14.18;11.10;;;28.30;99.90;;;;;;5003339;28;20033;-64
2022/10/31 06:44:32;;;;;;;13.82;11.10;;;28.30;99.90;;;;;;5002019;28;20026;-64
2022/10/31 06:46:59;;;;;;;16.88;11.82;;;28.30;99.90;;;;;;5002116;28;20033;-63
2022/10/31 06:49:25;;;;;;;16.98;12.68;;;28.20;99.90;;;;;;5003206;28;20088;-63
2022/10/31 06:51:52;;;;;;;13.32;10.85;;;28.30;99.90;;;;;;5001886;28;20027;-63
2022/10/31 06:54:19;;;;;;;14.60;10.57;;;28.20;99.90;;;;;;5002037;28;20045;-63
2022/10/31 06:56:47;;;;;;;12.55;9.40;;;28.30;99.90;;;;;;5002222;28;20092;-64
2022/10/31 06:59:14;;;;;;;14.18;9.68;;;28.40;99.90;;;;;;5007233;28;20022;-62
2022/10/31 07:01:41;;;;;;;12.43;7.25;;;28.40;99.90;;;;;;5002829;28;20015;-64
2022/10/31 07:04:10;;;;;;;9.65;7.68;;;28.50;99.90;;;;;;5001083;28;20061;-63
2022/10/31 07:06:37;;;;;;;11.15;6.47;;;28.50;99.90;;;;;;5001964;28;20026;-63
2022/10/31 07:09:04;;;;;;;10.65;7.10;;;28.50;99.90;;;;;;5003463;28;20030;-63
2022/10/31 07:11:30;;;;;;;12.40;7.93;;;28.60;99.90;;;;;;5001091;28;20031;-64
2022/10/31 07:13:57;;;;;;;9.55;6.85;;;28.60;99.90;;;;;;5002145;28;20014;-63
2022/10/31 07:16:23;;;;;;;9.95;5.50;;;28.60;99.90;;;;;;4993541;28;20518;-63
2022/10/31 07:18:50;;;;;;;12.48;7.40;;;28.60;99.90;;;;;;4993287;28;20029;-64
2022/10/31 07:21:19;;;;;;;10.10;5.80;;;28.50;99.90;;;;;;4993369;28;20475;-64
2022/10/31 07:23:49;;;;;;;8.98;6.60;;;28.60;99.90;;;;;;4993367;28;20034;-64
2022/10/31 07:26:15;;;;;;;10.73;5.90;;;28.50;99.90;;;;;;4993184;28;20102;-64
2022/10/31 07:28:42;;;;;;;14.10;7.82;;;28.50;99.90;;;;;;4996490;28;20077;-63
2022/10/31 07:31:08;;;;;;;9.27;6.53;;;28.50;99.90;;;;;;4999326;28;20022;-63
2022/10/31 07:33:35;;;;;;;13.70;6.82;;;28.60;99.90;;;;;;5005883;28;20363;-64
2022/10/31 07:36:01;;;;;;;8.60;5.70;;;28.70;99.90;;;;;;5005894;28;20494;-63
2022/10/31 07:38:28;;;;;;;11.73;6.05;;;28.60;99.90;;;;;;5004298;28;20073;-63
2022/10/31 07:40:54;;;;;;;8.85;6.28;;;28.70;99.90;;;;;;5005880;28;20022;-64
2022/10/31 07:43:22;;;;;;;10.30;6.18;;;28.70;99.90;;;;;;5005535;28;20049;-64
2022/10/31 07:45:52;;;;;;;9.52;5.68;;;28.70;99.90;;;;;;5003926;28;20022;-64
2022/10/31 07:48:20;;;;;;;8.48;5.45;;;28.60;99.90;;;;;;5004811;28;20045;-63
2022/10/31 07:50:47;;;;;;;11.13;5.82;;;28.60;99.90;;;;;;5006070;28;20041;-64
2022/10/31 07:53:15;;;;;;;6.85;4.70;;;28.70;99.90;;;;;;5004828;28;20098;-64
2022/10/31 07:55:41;;;;;;;18.20;6.05;;;28.70;99.90;;;;;;5004999;28;20069;-64
2022/10/31 07:58:10;;;;;;;11.70;6.38;;;28.70;99.90;;;;;;5009071;28;20475;-64
2022/10/31 08:00:38;;;;;;;29.70;20.98;;;28.70;99.90;;;;;;5008409;28;20045;-64
2022/10/31 08:03:07;;;;;;;23.55;16.02;;;28.60;99.90;;;;;;5016048;28;20550;-65
2022/10/31 08:05:34;;;;;;;34.15;22.40;;;28.60;99.90;;;;;;5016130;28;20030;-65
2022/10/31 08:08:01;;;;;;;75.55;37.90;;;28.50;99.90;;;;;;5016006;28;20140;-63
2022/10/31 08:10:28;;;;;;;13.68;8.10;;;28.60;99.90;;;;;;5015964;28;20434;-63
2022/10/31 08:13:01;;;;;;;14.40;8.48;;;28.60;99.90;;;;;;5015760;28;20030;-65
2022/10/31 08:15:28;;;;;;;10.07;7.07;;;28.60;99.90;;;;;;5015611;28;20030;-64
2022/10/31 08:17:54;;;;;;;11.07;6.07;;;28.60;99.90;;;;;;5015610;28;20052;-63
2022/10/31 08:20:22;;;;;;;10.25;5.82;;;28.60;99.90;;;;;;5016018;28;20025;-63
2022/10/31 08:23:00;;;;;;;12.48;5.95;;;28.60;99.90;;;;;;5015844;28;20032;-62
2022/10/31 08:25:28;;;;;;;7.47;5.45;;;28.60;99.90;;;;;;5015798;28;20028;-63
2022/10/31 08:27:56;;;;;;;8.30;6.05;;;28.60;99.90;;;;;;5015610;28;20056;-62
2022/10/31 08:30:25;;;;;;;8.57;5.90;;;28.60;99.90;;;;;;5015401;28;20373;-63
2022/10/31 08:33:02;;;;;;;10.10;6.00;;;28.70;99.90;;;;;;5015483;28;20030;-63
2022/10/31 08:35:29;;;;;;;13.45;6.47;;;28.70;99.90;;;;;;5015465;28;20168;-62
2022/10/31 08:37:58;;;;;;;8.68;6.22;;;28.70;99.90;;;;;;5015761;28;20057;-63
2022/10/31 08:40:25;;;;;;;8.50;6.80;;;28.60;99.90;;;;;;5014632;28;20045;-63
2022/10/31 08:42:58;;;;;;;8.73;6.00;;;28.60;99.90;;;;;;5015013;28;20030;-61
2022/10/31 08:45:25;;;;;;;8.73;6.07;;;28.50;99.90;;;;;;5009390;28;20077;-62
2022/10/31 08:47:52;;;;;;;11.27;6.13;;;28.50;99.90;;;;;;5014521;28;20030;-62
2022/10/31 08:50:19;;;;;;;11.65;7.63;;;28.60;99.90;;;;;;5014835;28;20057;-62
2022/10/31 08:52:45;;;;;;;11.30;7.20;;;28.60;99.90;;;;;;5007157;28;20030;-63
2022/10/31 08:55:12;;;;;;;13.93;7.40;;;28.70;99.90;;;;;;5004911;28;20396;-63
2022/10/31 08:57:38;;;;;;;12.95;8.20;;;28.70;99.90;;;;;;5003148;28;20019;-63
2022/10/31 09:00:05;;;;;;;61.88;37.90;;;28.60;99.90;;;;;;4987163;28;20026;-62
2022/10/31 09:02:32;;;;;;;23.42;14.57;;;28.60;99.90;;;;;;5004779;28;20015;-63
2022/10/31 09:04:58;;;;;;;22.67;11.05;;;28.60;99.90;;;;;;5002906;28;20114;-63
2022/10/31 09:07:25;;;;;;;12.68;10.18;;;28.60;99.90;;;;;;5004500;28;20054;-64
2022/10/31 09:09:52;;;;;;;24.83;11.48;;;28.70;99.90;;;;;;5008608;28;20463;-62
2022/10/31 09:12:18;;;;;;;16.45;9.65;;;28.70;99.90;;;;;;5004696;28;20027;-62
2022/10/31 09:14:45;;;;;;;19.30;11.02;;;28.70;99.90;;;;;;5003319;28;20517;-63
2022/10/31 09:17:11;;;;;;;14.25;10.57;;;28.70;99.90;;;;;;5004498;28;20026;-63
2022/10/31 09:19:38;;;;;;;13.38;8.23;;;28.70;99.90;;;;;;5004688;28;20029;-63
2022/10/31 09:22:05;;;;;;;12.85;8.13;;;28.70;99.90;;;;;;5003650;28;20045;-62
2022/10/31 09:24:31;;;;;;;16.95;8.50;;;28.70;99.90;;;;;;5008939;28;20068;-62
2022/10/31 09:26:59;;;;;;;14.05;9.15;;;28.70;99.90;;;;;;5010685;28;20088;-63
2022/10/31 09:29:25;;;;;;;16.85;8.98;;;28.70;99.90;;;;;;5006101;28;20027;-64
2022/10/31 09:31:52;;;;;;;15.80;8.55;;;28.60;99.90;;;;;;5006451;28;20088;-62
2022/10/31 09:34:18;;;;;;;13.73;9.70;;;28.60;99.90;;;;;;5003294;28;20023;-62
2022/10/31 09:36:45;;;;;;;30.58;23.55;;;28.60;99.90;;;;;;4995139;28;20037;-62
2022/10/31 09:39:12;;;;;;;21.63;14.98;;;28.60;99.90;;;;;;4994095;28;20030;-63
2022/10/31 09:41:40;;;;;;;22.05;12.75;;;28.60;99.90;;;;;;5006247;28;20037;-63
2022/10/31 09:44:28;;;;;;;20.85;10.05;;;28.60;99.90;;;;;;4994210;28;20097;-63
2022/10/31 09:47:05;;;;;;;20.63;10.35;;;28.60;99.90;;;;;;4934298;29;20456;-63
2022/10/31 09:49:37;;;;;;;22.85;9.85;;;28.60;99.90;;;;;;4934220;29;20119;-62
2022/10/31 09:52:07;;;;;;;15.68;9.15;;;28.60;99.90;;;;;;4933737;29;20019;-63
2022/10/31 09:54:43;;;;;;;17.42;9.38;;;28.60;99.90;;;;;;4940076;28;20034;-63
2022/10/31 09:57:15;;;;;;;17.58;10.55;;;28.60;99.90;;;;;;4973013;28;20035;-64
2022/10/31 09:59:44;;;;;;;17.73;12.18;;;28.60;99.90;;;;;;4972405;28;20030;-64
2022/10/31 10:02:17;;;;;;;16.35;10.55;;;28.70;99.90;;;;;;4972344;28;20038;-64
2022/10/31 10:05:01;;;;;;;22.90;10.77;;;28.60;99.90;;;;;;4958057;28;20031;-63
2022/10/31 10:07:43;;;;;;;20.65;13.52;;;28.60;99.90;;;;;;4961286;28;20503;-63
2022/10/31 10:10:15;;;;;;;28.65;14.43;;;28.60;99.90;;;;;;4972535;28;20444;-63
2022/10/31 10:12:51;;;;;;;22.73;13.77;;;28.60;99.90;;;;;;4972760;28;20043;-63
2022/10/31 10:15:37;;;;;;;32.60;14.38;;;28.50;99.90;;;;;;4972500;28;20034;-64
2022/10/31 10:18:23;;;;;;;28.15;15.20;;;28.50;99.90;;;;;;5001986;28;20109;-63
2022/10/31 10:21:01;;;;;;;19.02;11.85;;;28.50;99.90;;;;;;5004227;28;20102;-63
2022/10/31 10:23:36;;;;;;;35.15;14.10;;;28.50;99.90;;;;;;4983311;28;20101;-63
2022/10/31 10:26:19;;;;;;;28.45;13.85;;;28.50;99.90;;;;;;4983128;28;20035;-63
2022/10/31 10:28:54;;;;;;;23.02;13.35;;;28.40;99.90;;;;;;4984841;28;20022;-63
2022/10/31 10:31:27;;;;;;;23.40;13.43;;;28.40;99.90;;;;;;4984360;28;20015;-64
2022/10/31 10:34:01;;;;;;;26.85;15.88;;;28.40;99.90;;;;;;4983571;28;20047;-63
2022/10/31 10:36:48;;;;;;;32.95;17.25;;;28.40;99.90;;;;;;4982988;28;20023;-64
2022/10/31 10:39:20;;;;;;;51.65;29.20;;;28.40;99.90;;;;;;4931294;29;20218;-64
2022/10/31 10:50:02;;;;;;;56.97;35.88;;;28.30;99.90;;;;;;4923019;29;20131;-64
2022/10/31 10:52:30;;;;;;;62.20;38.30;;;28.30;99.90;;;;;;4922839;29;20390;-65
2022/10/31 10:55:00;;;;;;;64.40;38.55;;;28.20;99.90;;;;;;4923867;29;20039;-66
2022/10/31 10:57:29;;;;;;;59.20;37.00;;;28.20;99.90;;;;;;4922306;29;20042;-65
2022/10/31 10:59:57;;;;;;;68.18;36.08;;;28.10;99.90;;;;;;4923841;29;20032;-63
2022/10/31 11:02:26;;;;;;;46.97;31.95;;;28.10;99.90;;;;;;4926037;29;20131;-64
2022/10/31 11:04:56;;;;;;;58.08;36.90;;;28.20;99.90;;;;;;4924170;29;20032;-64
2022/10/31 11:07:22;;;;;;;56.42;33.38;;;28.10;99.90;;;;;;4924165;29;20066;-63
2022/10/31 11:09:49;;;;;;;46.58;23.92;;;28.10;99.90;;;;;;4918367;29;20033;-64
2022/10/31 11:12:36;;;;;;;48.00;26.17;;;28.00;99.90;;;;;;4918036;29;20123;-63
2022/10/31 11:15:17;;;;;;;47.40;24.65;;;28.00;99.90;;;;;;4917799;29;20520;-65
2022/10/31 11:17:51;;;;;;;50.63;27.90;;;28.00;99.90;;;;;;4925824;29;20044;-64
2022/10/31 11:20:17;;;;;;;53.13;31.23;;;28.00;99.90;;;;;;4922750;29;20043;-64
2022/10/31 11:22:46;;;;;;;58.15;32.00;;;28.00;99.90;;;;;;4927267;29;20032;-65
2022/10/31 11:25:33;;;;;;;84.13;45.88;;;28.00;99.90;;;;;;4942901;29;20039;-64
2022/10/31 11:28:04;;;;;;;79.65;48.67;;;28.00;99.90;;;;;;4965686;28;20215;-64
2022/10/31 11:30:42;;;;;;;62.45;38.88;;;28.00;99.90;;;;;;4967851;28;20380;-64
2022/10/31 11:33:31;;;;;;;66.47;36.72;;;27.90;99.90;;;;;;4967293;28;20023;-65
2022/10/31 11:35:58;;;;;;;70.93;38.83;;;28.00;99.90;;;;;;4934773;29;20036;-64
2022/10/31 11:38:33;;;;;;;71.22;35.60;;;27.90;99.90;;;;;;4934602;29;20110;-64
2022/10/31 11:41:32;;;;;;;62.85;31.63;;;27.90;99.90;;;;;;4930609;29;20035;-63
2022/10/31 11:44:04;;;;;;;61.22;35.70;;;27.90;99.90;;;;;;4917528;29;20028;-63
2022/10/31 11:46:36;;;;;;;72.15;38.45;;;27.90;99.90;;;;;;4917650;29;20044;-63
2022/10/31 11:49:04;;;;;;;76.80;39.83;;;27.90;99.90;;;;;;4927147;29;20057;-64
2022/10/31 11:51:34;;;;;;;73.13;38.80;;;27.90;99.90;;;;;;4937047;29;20144;-64
2022/10/31 11:54:04;;;;;;;75.00;35.33;;;27.90;99.90;;;;;;4937183;29;20453;-64
2022/10/31 11:56:42;;;;;;;58.97;32.50;;;27.90;99.90;;;;;;4936391;29;20040;-64
2022/10/31 11:59:30;;;;;;;47.15;29.83;;;27.90;99.90;;;;;;4936936;29;20473;-63
2022/10/31 12:01:59;;;;;;;58.90;31.98;;;27.70;99.90;;;;;;4936573;29;20122;-64
2022/10/31 12:04:49;;;;;;;54.45;31.98;;;27.70;99.90;;;;;;4936473;29;20057;-65
2022/10/31 12:07:15;;;;;;;64.65;34.63;;;27.80;99.90;;;;;;4963073;28;20043;-64
2022/10/31 12:09:42;;;;;;;56.80;34.75;;;27.80;99.90;;;;;;4977193;28;20041;-64
2022/10/31 12:12:28;;;;;;;66.20;33.88;;;27.70;99.90;;;;;;4977167;28;20102;-64
2022/10/31 12:15:36;;;;;;;61.28;34.13;;;27.70;99.90;;;;;;4975818;28;20058;-64
2022/10/31 12:18:17;;;;;;;52.00;32.13;;;27.70;99.90;;;;;;4975788;28;20046;-64
2022/10/31 12:21:05;;;;;;;57.95;34.92;;;27.70;99.90;;;;;;4976645;28;20393;-65
2022/10/31 12:23:48;;;;;;;55.33;34.42;;;27.60;99.90;;;;;;4966423;28;20027;-65
2022/10/31 12:26:36;;;;;;;72.25;35.55;;;27.60;99.90;;;;;;4966805;28;20042;-65
2022/10/31 12:29:20;;;;;;;63.10;36.63;;;27.60;99.90;;;;;;4965212;28;20106;-64
2022/10/31 12:32:04;;;;;;;98.13;41.10;;;27.60;99.90;;;;;;4965661;28;20023;-65
2022/10/31 12:34:33;;;;;;;71.50;42.42;;;27.70;99.90;;;;;;4965994;28;20404;-65
2022/10/31 12:37:11;;;;;;;105.70;61.58;;;27.60;99.90;;;;;;4973101;28;20384;-63
2022/10/31 12:39:43;;;;;;;93.90;56.60;;;27.60;99.90;;;;;;4967554;28;20023;-65
2022/10/31 12:42:29;;;;;;;;;;;27.50;99.90;;;;;;4964420;28;20038;-64
2022/10/31 12:45:05;;;;;;;105.57;59.97;;;27.50;99.90;;;;;;4965530;28;20477;-65
2022/10/31 12:47:48;;;;;;;77.47;43.55;;;27.50;99.90;;;;;;4965177;28;20053;-65
2022/10/31 12:50:23;;;;;;;77.03;43.20;;;27.50;99.90;;;;;;5001262;28;20361;-65
2022/10/31 12:53:00;;;;;;;70.75;40.75;;;27.60;99.90;;;;;;5007264;28;20034;-65
2022/10/31 12:55:56;;;;;;;67.32;40.92;;;27.50;99.90;;;;;;5010892;28;20038;-64